Guion, Arkansas
Current Conditions -  °F | °C
As of 10:15 AM on Monday 26 Jan 2015 (Local Time) from KBVX Reporting Station
Clear Clear  
Wind Chill: 37°   Ceiling: Unl
Heat Index: 43°   Visibility: 10mi
Dew Point: 28°   Wind: 9mph
Humidity: 57%   Direction: 290°WNW
Pressure: 30.12"   Gusts: NA
Location:  35.93°N, 91.94°W
Report Text: KBVX 261615Z AUTO 29008KT 240V330 10SM CLR 06/M02 A3012 RMK AO1
Loading
Personal Weather Stations






























Interactive Weather Map New forecast layout! Learn more

10-Day Weather Forecast

Advertisements
Track Severe Weather on mobile